Time;durP1;ratioP1;P1;durP2;ratioP2;P2;SDS_P1;SDS_P2;PMS_P1;PMS_P2;Temp;Humidity;BMP_temperature;BMP_pressure;BME280_temperature;BME280_humidity;BME280_pressure;Samples;Min_cycle;Max_cycle;Signal;HPM_P1;HPM_P2
2023/09/19 00:00:47;;;;;;;2.60;2.37;;;16.80;99.90;;;;;;5034827;28;20802;-72
2023/09/19 00:03:12;;;;;;;2.33;2.13;;;16.80;99.90;;;;;;5034764;28;20413;-72
2023/09/19 00:05:39;;;;;;;2.67;2.43;;;16.80;99.90;;;;;;5033859;28;20407;-75
2023/09/19 00:08:05;;;;;;;2.57;2.13;;;16.80;99.90;;;;;;5034197;28;20186;-70
2023/09/19 00:10:34;;;;;;;3.43;2.20;;;16.80;99.90;;;;;;5034615;28;20729;-71
2023/09/19 00:13:05;;;;;;;3.70;2.97;;;16.90;99.90;;;;;;5033392;28;20446;-73
2023/09/19 00:15:38;;;;;;;5.20;1.70;;;16.90;99.90;;;;;;5033698;28;20453;-73
2023/09/19 00:18:07;;;;;;;2.83;2.40;;;17.00;99.90;;;;;;5034472;28;20548;-72
2023/09/19 00:20:35;;;;;;;2.60;2.40;;;16.90;99.90;;;;;;5034490;28;20460;-71
2023/09/19 00:23:08;;;;;;;8.30;2.37;;;16.90;99.90;;;;;;5033947;28;20459;-73
2023/09/19 00:25:35;;;;;;;5.40;2.23;;;16.90;99.90;;;;;;5033543;28;20406;-71
2023/09/19 00:28:01;;;;;;;4.57;2.70;;;17.00;99.90;;;;;;5034267;28;20460;-73
2023/09/19 00:30:27;;;;;;;5.63;2.30;;;17.00;99.90;;;;;;5034295;28;20402;-75
2023/09/19 00:32:53;;;;;;;3.40;3.10;;;16.90;99.90;;;;;;5034387;28;20437;-75
2023/09/19 00:35:19;;;;;;;3.00;2.30;;;16.90;99.90;;;;;;5033182;28;20187;-75
2023/09/19 00:37:45;;;;;;;6.77;3.40;;;16.90;99.90;;;;;;5033987;28;20816;-74
2023/09/19 00:40:15;;;;;;;2.70;2.40;;;16.90;99.90;;;;;;5034224;28;20252;-76
2023/09/19 00:42:42;;;;;;;3.60;2.47;;;16.90;99.90;;;;;;5033592;28;20472;-70
2023/09/19 00:45:12;;;;;;;2.43;2.23;;;16.90;99.90;;;;;;5033829;28;20410;-72
2023/09/19 00:47:49;;;;;;;12.67;3.80;;;16.90;99.90;;;;;;5032989;28;20430;-73
2023/09/19 00:50:21;;;;;;;5.73;2.70;;;16.90;99.90;;;;;;5034051;28;20537;-72
2023/09/19 00:52:50;;;;;;;4.37;3.07;;;16.90;99.90;;;;;;5033907;28;20426;-75
2023/09/19 00:55:19;;;;;;;2.93;2.23;;;16.90;99.90;;;;;;5031864;28;20814;-74
2023/09/19 00:57:45;;;;;;;4.90;2.80;;;16.90;99.90;;;;;;5033620;28;20437;-75
2023/09/19 01:00:15;;;;;;;7.60;3.27;;;17.00;99.90;;;;;;5032996;28;20403;-71
2023/09/19 01:02:44;;;;;;;5.30;2.30;;;17.00;99.90;;;;;;5033492;28;20836;-72
2023/09/19 01:05:12;;;;;;;5.73;2.40;;;16.90;99.90;;;;;;5033537;28;20816;-72
2023/09/19 01:07:41;;;;;;;3.07;2.77;;;16.90;99.90;;;;;;5032789;28;20434;-71
2023/09/19 01:10:14;;;;;;;3.03;2.43;;;16.90;99.90;;;;;;5033614;28;20772;-75
2023/09/19 01:12:49;;;;;;;2.87;2.63;;;16.90;99.90;;;;;;5033451;28;20417;-71
2023/09/19 01:15:42;;;;;;;4.70;2.33;;;16.80;99.90;;;;;;5032836;28;20532;-73
2023/09/19 01:18:23;;;;;;;4.20;2.20;;;16.90;99.90;;;;;;5032982;28;20418;-75
2023/09/19 01:21:09;;;;;;;3.67;2.70;;;16.80;99.90;;;;;;5033257;28;20394;-75
2023/09/19 01:24:04;;;;;;;2.83;2.63;;;16.90;99.90;;;;;;5033425;28;20477;-73
2023/09/19 01:27:19;;;;;;;2.90;2.70;;;16.80;99.90;;;;;;5032327;28;20402;-73
2023/09/19 01:29:49;;;;;;;2.87;2.67;;;16.80;99.90;;;;;;5031002;28;20411;-73
2023/09/19 01:32:24;;;;;;;5.20;2.30;;;16.80;99.90;;;;;;5033170;28;20469;-72
2023/09/19 01:34:53;;;;;;;3.10;2.80;;;16.80;99.90;;;;;;5033180;28;20445;-75
2023/09/19 01:37:24;;;;;;;4.67;2.70;;;16.70;99.90;;;;;;5031519;28;20938;-75
2023/09/19 01:40:05;;;;;;;4.30;2.47;;;16.80;99.90;;;;;;5032946;28;20441;-72
2023/09/19 01:42:42;;;;;;;4.37;2.17;;;16.80;99.90;;;;;;5033106;28;20394;-72
2023/09/19 01:45:33;;;;;;;9.03;3.13;;;16.80;99.90;;;;;;5031889;28;20413;-74
2023/09/19 01:48:31;;;;;;;5.77;2.80;;;16.80;99.90;;;;;;5032869;28;20426;-73
2023/09/19 01:51:06;;;;;;;6.53;2.30;;;16.90;99.90;;;;;;5032286;28;20871;-76
2023/09/19 01:53:47;;;;;;;6.43;3.07;;;16.80;99.90;;;;;;5033014;28;20408;-75
2023/09/19 01:56:22;;;;;;;3.20;2.63;;;16.80;99.90;;;;;;5031414;28;20489;-74
2023/09/19 01:58:56;;;;;;;3.30;2.50;;;16.80;99.90;;;;;;5032371;28;20763;-72
2023/09/19 02:01:23;;;;;;;7.10;4.00;;;16.80;99.90;;;;;;5032796;28;20548;-77
2023/09/19 02:03:50;;;;;;;8.17;2.80;;;16.80;99.90;;;;;;5032792;28;20546;-71
2023/09/19 02:06:18;;;;;;;2.73;2.00;;;16.70;99.90;;;;;;5032038;28;20398;-75
2023/09/19 02:08:44;;;;;;;4.50;1.87;;;16.70;99.90;;;;;;5032840;28;20772;-76
2023/09/19 02:11:11;;;;;;;5.03;2.63;;;16.70;99.90;;;;;;5032704;28;20394;-76
2023/09/19 02:13:37;;;;;;;11.70;3.20;;;16.70;99.90;;;;;;5032583;28;20406;-71
2023/09/19 02:16:04;;;;;;;5.27;2.73;;;16.70;99.90;;;;;;5031388;28;20915;-72
2023/09/19 02:18:30;;;;;;;5.20;2.30;;;16.70;99.90;;;;;;5032645;28;20771;-76
2023/09/19 02:20:58;;;;;;;8.40;2.60;;;16.60;99.90;;;;;;5032833;28;20475;-72
2023/09/19 02:23:25;;;;;;;3.03;1.90;;;16.50;99.90;;;;;;5032692;28;20422;-73
2023/09/19 02:25:54;;;;;;;6.13;2.60;;;16.50;99.90;;;;;;5031708;28;20489;-73
2023/09/19 02:28:22;;;;;;;4.80;2.53;;;16.50;99.90;;;;;;5032619;28;20418;-75
2023/09/19 02:30:48;;;;;;;5.70;2.80;;;16.50;99.90;;;;;;5032616;28;20950;-77
2023/09/19 02:33:15;;;;;;;5.43;2.23;;;16.50;99.90;;;;;;5032001;28;20422;-74
2023/09/19 02:35:40;;;;;;;6.50;2.63;;;16.50;99.90;;;;;;5031698;28;20783;-76
2023/09/19 02:38:11;;;;;;;9.17;2.80;;;16.50;99.90;;;;;;5032309;28;20509;-76
2023/09/19 02:40:37;;;;;;;5.50;2.03;;;16.40;99.90;;;;;;5032557;28;20160;-77
2023/09/19 02:43:03;;;;;;;5.23;2.33;;;16.40;99.90;;;;;;5032618;28;20903;-76
2023/09/19 02:45:30;;;;;;;4.57;2.40;;;16.30;99.90;;;;;;5031609;28;20468;-75
2023/09/19 02:47:56;;;;;;;12.23;2.30;;;16.30;99.90;;;;;;5032358;28;20430;-73
2023/09/19 02:50:21;;;;;;;3.23;2.50;;;16.30;99.90;;;;;;5032411;28;20406;-74
2023/09/19 02:52:50;;;;;;;3.50;2.53;;;16.20;99.90;;;;;;5031714;28;20764;-76
2023/09/19 02:55:18;;;;;;;7.40;3.33;;;16.20;99.90;;;;;;5031649;28;20593;-76
2023/09/19 02:57:49;;;;;;;5.57;3.60;;;16.10;99.90;;;;;;5032131;28;20516;-73
2023/09/19 03:00:16;;;;;;;5.00;2.80;;;16.10;99.90;;;;;;5032377;28;20403;-77
2023/09/19 03:02:42;;;;;;;6.93;2.80;;;16.10;99.90;;;;;;5032267;28;20737;-74
2023/09/19 03:05:11;;;;;;;2.90;2.60;;;16.10;99.90;;;;;;5032048;28;20410;-73
2023/09/19 03:07:38;;;;;;;3.63;2.53;;;16.10;99.90;;;;;;5031587;28;20449;-73
2023/09/19 03:10:05;;;;;;;2.90;2.60;;;16.10;99.90;;;;;;5033350;28;20399;-74
2023/09/19 03:12:31;;;;;;;6.60;3.90;;;16.10;99.90;;;;;;5035065;28;20406;-74
2023/09/19 03:14:57;;;;;;;5.23;2.63;;;16.10;99.90;;;;;;5035748;28;20438;-73
2023/09/19 03:17:23;;;;;;;5.00;2.97;;;16.10;99.90;;;;;;5034756;28;20970;-73
2023/09/19 03:19:49;;;;;;;5.63;2.63;;;16.10;99.90;;;;;;5035619;28;20210;-76
2023/09/19 03:22:15;;;;;;;4.43;2.37;;;16.10;99.90;;;;;;5035721;28;20196;-76
2023/09/19 03:24:41;;;;;;;5.20;2.70;;;16.10;99.90;;;;;;5035452;28;20426;-76
2023/09/19 03:27:13;;;;;;;2.93;2.60;;;16.10;99.90;;;;;;5034660;28;20429;-76
2023/09/19 03:29:39;;;;;;;4.57;2.70;;;16.10;99.90;;;;;;5035545;28;20479;-75
2023/09/19 03:32:05;;;;;;;3.20;2.50;;;16.10;99.90;;;;;;5034687;28;20446;-75
2023/09/19 03:34:31;;;;;;;5.20;2.00;;;16.10;99.90;;;;;;5035247;28;20442;-76
2023/09/19 03:36:57;;;;;;;7.13;2.73;;;16.10;99.90;;;;;;5034373;28;20187;-74
2023/09/19 03:39:23;;;;;;;3.10;1.80;;;16.10;99.90;;;;;;5035366;28;20159;-77
2023/09/19 03:41:49;;;;;;;2.87;2.67;;;16.10;99.90;;;;;;5035237;28;20410;-74
2023/09/19 03:44:15;;;;;;;4.13;2.30;;;16.10;99.90;;;;;;5035362;28;20643;-74
2023/09/19 03:46:41;;;;;;;5.50;2.50;;;16.00;99.90;;;;;;5034127;28;20501;-73
2023/09/19 03:49:06;;;;;;;3.77;2.27;;;16.00;99.90;;;;;;5035047;28;20494;-76
2023/09/19 03:51:34;;;;;;;5.10;2.97;;;16.00;99.90;;;;;;5034524;28;20199;-76
2023/09/19 03:53:59;;;;;;;5.50;2.63;;;15.90;99.90;;;;;;5034941;28;20647;-76
2023/09/19 03:56:25;;;;;;;5.90;2.30;;;15.90;99.90;;;;;;5033995;28;20441;-75
2023/09/19 03:58:51;;;;;;;7.67;2.47;;;15.90;99.90;;;;;;5034949;28;20202;-76
2023/09/19 04:01:18;;;;;;;4.53;3.00;;;15.90;97.90;;;;;;5034910;28;20174;-74
2023/09/19 04:03:47;;;;;;;6.43;2.70;;;15.90;94.20;;;;;;5034774;28;20202;-74
2023/09/19 04:06:16;;;;;;;3.63;3.10;;;15.80;94.10;;;;;;5034021;28;20493;-76
2023/09/19 04:08:43;;;;;;;3.77;2.10;;;15.80;94.10;;;;;;5034278;28;20418;-77
2023/09/19 04:11:10;;;;;;;7.00;2.70;;;15.70;94.10;;;;;;5034609;28;20394;-74
2023/09/19 04:13:36;;;;;;;10.60;2.30;;;15.70;94.10;;;;;;5034740;28;20402;-77
2023/09/19 04:16:06;;;;;;;13.87;3.50;;;15.70;94.20;;;;;;5033534;28;20442;-75
2023/09/19 04:18:33;;;;;;;4.53;2.53;;;15.60;94.10;;;;;;5034477;28;20425;-73
2023/09/19 04:21:02;;;;;;;6.83;2.80;;;15.60;94.10;;;;;;5034116;28;20790;-74
2023/09/19 04:23:28;;;;;;;7.30;2.80;;;15.60;94.10;;;;;;5034473;28;20902;-77
2023/09/19 04:25:54;;;;;;;6.30;2.40;;;15.50;94.10;;;;;;5033581;28;20406;-77
2023/09/19 04:28:19;;;;;;;8.43;2.23;;;15.50;94.00;;;;;;5033904;28;20192;-76
2023/09/19 04:30:45;;;;;;;6.80;2.90;;;15.50;91.10;;;;;;5034186;28;20246;-77
2023/09/19 04:33:14;;;;;;;4.90;2.10;;;15.50;89.10;;;;;;5034124;28;20698;-76
2023/09/19 04:35:42;;;;;;;3.60;2.70;;;15.40;84.20;;;;;;5033463;28;20613;-74
2023/09/19 04:38:08;;;;;;;6.60;2.60;;;15.40;84.50;;;;;;5034147;28;20433;-76
2023/09/19 04:40:34;;;;;;;5.37;2.03;;;15.40;78.60;;;;;;5034054;28;20409;-75
2023/09/19 04:43:00;;;;;;;3.90;2.07;;;15.40;73.90;;;;;;5034173;28;20493;-77
2023/09/19 04:45:27;;;;;;;5.20;2.27;;;15.30;69.60;;;;;;5033075;28;20721;-74
2023/09/19 04:47:54;;;;;;;10.27;2.60;;;15.30;68.20;;;;;;5033279;28;20426;-74
2023/09/19 04:50:22;;;;;;;11.33;2.80;;;15.20;66.40;;;;;;5034014;28;20398;-74
2023/09/19 04:52:51;;;;;;;10.37;2.40;;;15.10;68.90;;;;;;5032628;28;20922;-77
2023/09/19 04:55:18;;;;;;;7.37;3.37;;;15.10;66.80;;;;;;5032939;28;20485;-75
2023/09/19 04:57:45;;;;;;;5.77;3.17;;;15.10;65.40;;;;;;5032316;28;20426;-76
2023/09/19 05:00:16;;;;;;;4.77;2.20;;;15.10;63.30;;;;;;5033838;28;20544;-76
2023/09/19 05:02:43;;;;;;;6.00;2.87;;;15.10;62.00;;;;;;5033540;28;21160;-75
2023/09/19 05:05:14;;;;;;;15.43;2.37;;;15.10;64.90;;;;;;5032974;28;20752;-75
2023/09/19 05:07:41;;;;;;;4.97;2.60;;;15.10;65.30;;;;;;5033192;28;20453;-71
2023/09/19 05:10:07;;;;;;;5.67;2.73;;;15.10;61.40;;;;;;5033596;28;20485;-76
2023/09/19 05:12:35;;;;;;;13.13;2.70;;;15.10;62.00;;;;;;5033557;28;20399;-74
2023/09/19 05:15:04;;;;;;;6.40;2.57;;;15.00;61.30;;;;;;5033499;28;20532;-76
2023/09/19 05:17:31;;;;;;;3.40;2.20;;;15.00;62.10;;;;;;5031204;28;20761;-73
2023/09/19 05:19:58;;;;;;;6.50;2.70;;;15.00;63.30;;;;;;5033414;28;20401;-74
2023/09/19 05:22:26;;;;;;;5.97;2.23;;;15.00;59.60;;;;;;5032777;28;20422;-75
2023/09/19 05:24:52;;;;;;;4.20;2.23;;;15.00;56.80;;;;;;5033383;28;20407;-75
2023/09/19 05:27:20;;;;;;;5.20;2.30;;;14.90;56.90;;;;;;5032360;28;20430;-73
2023/09/19 05:29:46;;;;;;;5.43;2.50;;;14.80;58.60;;;;;;5033278;28;20984;-77
2023/09/19 05:32:12;;;;;;;4.73;3.00;;;14.90;57.40;;;;;;5032656;28;20418;-73
2023/09/19 05:34:38;;;;;;;6.00;2.90;;;14.90;52.00;;;;;;5033031;28;20450;-77
2023/09/19 05:37:08;;;;;;;3.73;2.17;;;14.90;48.00;;;;;;5032258;28;20461;-74
2023/09/19 05:39:34;;;;;;;4.57;2.27;;;14.90;40.00;;;;;;5032908;28;20381;-76
2023/09/19 05:42:03;;;;;;;6.73;2.77;;;14.90;36.50;;;;;;5032664;28;20737;-76
2023/09/19 05:44:29;;;;;;;7.73;2.53;;;14.90;32.70;;;;;;5033094;28;20705;-78
2023/09/19 05:46:56;;;;;;;13.10;3.83;;;14.90;27.10;;;;;;5032214;28;20426;-74
2023/09/19 05:49:24;;;;;;;8.87;2.43;;;14.90;25.10;;;;;;5032924;28;20250;-76
2023/09/19 05:51:53;;;;;;;5.27;2.57;;;14.90;22.80;;;;;;5032794;28;20410;-80
2023/09/19 05:54:22;;;;;;;6.97;3.60;;;15.00;18.80;;;;;;5032944;28;20369;-74
2023/09/19 05:56:53;;;;;;;8.10;2.73;;;14.90;6.30;;;;;;5032061;28;20478;-73
2023/09/19 05:59:19;;;;;;;7.60;2.93;;;14.90;2.90;;;;;;5032287;28;20409;-76
2023/09/19 06:01:46;;;;;;;6.77;2.60;;;14.80;1.00;;;;;;5032809;28;20406;-73
2023/09/19 06:04:11;;;;;;;9.40;2.30;;;14.70;1.00;;;;;;5032987;28;20398;-74
2023/09/19 06:06:39;;;;;;;8.57;2.53;;;14.80;1.00;;;;;;5031899;28;20505;-75
2023/09/19 06:09:06;;;;;;;11.93;2.80;;;14.80;1.00;;;;;;5033044;28;20171;-76
2023/09/19 06:11:34;;;;;;;3.67;2.37;;;14.80;1.00;;;;;;5031916;28;20396;-76
2023/09/19 06:14:02;;;;;;;7.63;2.10;;;14.80;1.00;;;;;;5032793;28;20449;-72
2023/09/19 06:16:29;;;;;;;7.37;2.53;;;14.90;1.00;;;;;;5030278;28;20529;-76
2023/09/19 06:18:55;;;;;;;3.37;2.30;;;14.90;1.00;;;;;;5032505;28;20399;-73
2023/09/19 06:21:26;;;;;;;5.80;2.40;;;15.00;1.00;;;;;;5032782;28;20407;-73
2023/09/19 06:23:52;;;;;;;4.47;2.63;;;14.90;1.00;;;;;;5032713;28;20465;-71
2023/09/19 06:26:18;;;;;;;6.90;2.50;;;14.90;1.00;;;;;;5031804;28;20398;-73
2023/09/19 06:28:44;;;;;;;7.67;2.60;;;14.90;1.00;;;;;;5032794;28;20455;-73
2023/09/19 06:31:10;;;;;;;13.33;2.63;;;14.90;1.00;;;;;;5032748;28;20210;-77
2023/09/19 06:33:40;;;;;;;3.90;2.27;;;14.90;1.00;;;;;;5032667;28;20234;-74
2023/09/19 06:36:06;;;;;;;7.40;2.30;;;15.00;1.00;;;;;;5031001;28;20461;-75
2023/09/19 06:41:09;;;;;;;6.50;2.50;;;15.10;1.00;;;;;;5822936;22;20477;-72
2023/09/19 06:43:39;;;;;;;5.00;2.53;;;15.10;1.00;;;;;;5013690;28;20415;-69
2023/09/19 06:46:07;;;;;;;6.67;2.60;;;15.20;1.00;;;;;;4999693;28;20427;-69
2023/09/19 06:48:34;;;;;;;4.80;2.03;;;15.20;1.00;;;;;;5016946;28;20391;-69
2023/09/19 06:51:04;;;;;;;6.30;3.20;;;15.20;1.00;;;;;;5016241;28;20446;-71
2023/09/19 06:53:36;;;;;;;5.70;2.43;;;15.20;1.00;;;;;;5000182;28;20888;-69
2023/09/19 06:56:03;;;;;;;4.77;2.20;;;15.20;1.00;;;;;;5016980;28;20455;-69
2023/09/19 06:58:28;;;;;;;3.57;2.10;;;15.20;1.00;;;;;;5016709;28;20771;-70
2023/09/19 07:00:54;;;;;;;3.07;2.77;;;15.30;1.00;;;;;;4998514;28;20450;-69
2023/09/19 07:03:21;;;;;;;4.87;2.73;;;15.30;1.00;;;;;;5016824;28;20368;-72
2023/09/19 07:05:48;;;;;;;5.40;2.33;;;15.30;1.00;;;;;;5016634;28;20172;-71
2023/09/19 07:08:15;;;;;;;6.60;2.10;;;15.30;1.00;;;;;;4982744;28;20416;-72
2023/09/19 07:10:52;;;;;;;7.10;2.53;;;15.40;1.00;;;;;;5015919;28;20442;-69
2023/09/19 07:13:20;;;;;;;9.87;2.37;;;15.40;1.00;;;;;;4984337;28;20183;-71
2023/09/19 07:15:49;;;;;;;11.20;2.33;;;15.40;1.00;;;;;;4999173;28;20950;-71
2023/09/19 07:18:19;;;;;;;4.83;2.10;;;15.50;1.00;;;;;;4998885;28;20439;-72
2023/09/19 07:20:49;;;;;;;4.50;1.70;;;15.50;1.00;;;;;;5015605;28;20427;-71
2023/09/19 07:23:21;;;;;;;7.70;1.70;;;15.40;1.00;;;;;;4999037;28;20922;-69
2023/09/19 07:25:50;;;;;;;12.63;3.93;;;15.40;1.00;;;;;;4982760;28;20794;-72
2023/09/19 07:28:17;;;;;;;4.33;2.07;;;15.50;1.00;;;;;;4998759;28;20403;-69
2023/09/19 07:30:43;;;;;;;6.03;2.23;;;15.50;1.00;;;;;;5015387;28;20979;-69
2023/09/19 07:33:11;;;;;;;3.00;2.00;;;15.60;1.00;;;;;;5016156;28;20411;-70
2023/09/19 07:35:40;;;;;;;7.40;2.00;;;15.60;1.00;;;;;;4982848;28;20455;-73
2023/09/19 07:38:07;;;;;;;6.43;2.30;;;15.70;1.00;;;;;;5016033;28;20815;-72
2023/09/19 07:40:33;;;;;;;11.13;2.63;;;15.60;1.00;;;;;;5015167;28;20403;-69
2023/09/19 07:43:02;;;;;;;2.70;2.50;;;15.60;1.00;;;;;;5015764;28;20450;-70
2023/09/19 07:45:30;;;;;;;10.87;3.40;;;15.50;1.00;;;;;;4998863;28;20418;-72
2023/09/19 07:47:56;;;;;;;6.57;3.17;;;15.50;1.00;;;;;;4998471;28;20903;-71
2023/09/19 07:50:22;;;;;;;6.40;2.77;;;15.60;1.00;;;;;;4981543;28;20415;-69
2023/09/19 07:52:52;;;;;;;4.40;2.30;;;15.50;1.00;;;;;;5015167;28;20842;-69
2023/09/19 07:55:24;;;;;;;4.70;2.33;;;15.60;1.00;;;;;;4998253;28;20535;-69
2023/09/19 07:57:50;;;;;;;9.50;2.40;;;15.60;1.00;;;;;;4998820;28;20411;-71
2023/09/19 08:00:16;;;;;;;8.90;2.90;;;15.70;1.00;;;;;;5014879;28;20964;-71
2023/09/19 08:02:44;;;;;;;4.50;2.63;;;15.70;1.00;;;;;;4981990;28;20435;-70
2023/09/19 08:08:28;;;;;;;7.20;2.40;;;15.80;1.00;;;;;;4958389;28;20406;-69
2023/09/19 08:10:58;;;;;;;3.37;2.10;;;15.80;1.00;;;;;;4997233;28;20431;-69
2023/09/19 08:13:25;;;;;;;7.47;2.47;;;15.90;1.00;;;;;;4982883;28;20407;-70
2023/09/19 08:15:54;;;;;;;7.10;2.77;;;15.90;1.00;;;;;;4997861;28;20451;-72
2023/09/19 08:18:22;;;;;;;7.57;2.43;;;15.90;1.00;;;;;;5015530;28;20431;-72
2023/09/19 08:20:52;;;;;;;9.40;2.57;;;16.00;1.00;;;;;;4997229;28;20961;-72
2023/09/19 08:23:21;;;;;;;7.13;2.70;;;16.00;1.00;;;;;;4981153;28;20953;-71
2023/09/19 08:25:48;;;;;;;7.80;2.60;;;16.00;1.00;;;;;;5015114;28;20412;-70
2023/09/19 08:28:18;;;;;;;6.50;1.97;;;16.10;1.00;;;;;;4997733;28;20407;-71
2023/09/19 08:30:46;;;;;;;2.60;2.00;;;16.10;1.00;;;;;;4982264;28;20431;-70
2023/09/19 08:33:17;;;;;;;4.47;2.37;;;16.20;1.00;;;;;;4997786;28;20421;-71
2023/09/19 08:35:45;;;;;;;8.50;2.60;;;16.30;1.00;;;;;;5014994;28;20493;-70
2023/09/19 08:38:11;;;;;;;5.53;1.73;;;16.30;1.00;;;;;;4997730;28;20442;-69
2023/09/19 08:40:41;;;;;;;3.27;2.13;;;16.30;1.00;;;;;;4980439;28;20538;-71
2023/09/19 08:43:08;;;;;;;7.43;2.40;;;16.30;1.00;;;;;;4997092;28;20465;-73
2023/09/19 08:45:36;;;;;;;4.87;3.03;;;16.20;1.00;;;;;;5014791;28;20418;-69
2023/09/19 08:48:23;;;;;;;7.43;2.33;;;16.20;1.00;;;;;;4981422;28;20407;-72
2023/09/19 08:50:59;;;;;;;9.97;4.20;;;16.20;1.00;;;;;;4996416;28;20474;-69
2023/09/19 08:53:54;;;;;;;6.53;2.80;;;16.20;1.00;;;;;;5014594;28;20463;-70
2023/09/19 08:56:22;;;;;;;5.73;2.70;;;16.20;1.00;;;;;;5014816;28;20439;-71
2023/09/19 08:59:02;;;;;;;4.80;3.43;;;16.30;1.00;;;;;;4997340;28;20914;-71
2023/09/19 09:01:32;;;;;;;9.37;3.77;;;16.50;1.00;;;;;;4996224;28;20443;-74
2023/09/19 09:04:01;;;;;;;4.83;2.13;;;16.60;1.00;;;;;;5014556;28;20899;-69
2023/09/19 09:06:28;;;;;;;6.80;2.70;;;16.60;1.00;;;;;;4996919;28;20430;-69
2023/09/19 09:08:56;;;;;;;11.60;2.90;;;16.60;1.00;;;;;;5014318;28;20419;-71
2023/09/19 09:11:28;;;;;;;5.50;2.60;;;16.70;1.00;;;;;;4996014;28;20765;-72
2023/09/19 09:13:53;;;;;;;5.07;2.17;;;16.50;1.00;;;;;;4981689;28;20427;-71
2023/09/19 09:16:21;;;;;;;8.80;2.73;;;16.50;1.00;;;;;;5013073;28;20458;-69
2023/09/19 09:18:54;;;;;;;6.03;2.33;;;16.50;1.00;;;;;;4996843;28;20177;-71
2023/09/19 09:21:21;;;;;;;8.83;2.50;;;16.50;1.00;;;;;;5013284;28;20915;-72
2023/09/19 09:23:49;;;;;;;10.33;3.03;;;16.50;1.00;;;;;;4996874;28;20403;-71
2023/09/19 09:26:16;;;;;;;5.53;2.23;;;16.50;1.00;;;;;;4980820;28;20430;-69
2023/09/19 09:28:49;;;;;;;9.07;2.67;;;16.60;1.00;;;;;;4980425;28;20514;-71
2023/09/19 09:31:26;;;;;;;4.73;2.40;;;16.60;1.00;;;;;;4995921;28;20483;-69
2023/09/19 09:33:58;;;;;;;3.10;2.20;;;16.60;1.00;;;;;;4993575;28;20969;-70
2023/09/19 09:36:34;;;;;;;10.03;3.03;;;16.60;1.00;;;;;;5013926;28;20479;-71
2023/09/19 09:39:15;;;;;;;7.83;2.87;;;16.60;1.00;;;;;;4996485;28;20414;-69
2023/09/19 09:41:43;;;;;;;13.33;2.57;;;16.60;1.00;;;;;;4997415;28;20471;-70
2023/09/19 09:44:17;;;;;;;7.90;2.50;;;16.70;1.00;;;;;;5013758;28;20407;-69
2023/09/19 09:52:25;;;;;;;3.23;2.20;;;17.20;1.00;;;;;;4996559;28;20446;-71
2023/09/19 09:55:10;;;;;;;7.73;2.53;;;17.20;1.00;;;;;;4998238;28;20462;-69
2023/09/19 09:57:35;;;;;;;4.60;2.60;;;17.10;1.00;;;;;;4997546;28;20418;-70
2023/09/19 10:02:40;;;;;;;5.63;2.73;;;17.20;1.00;;;;;;4997552;28;20684;-70
2023/09/19 10:05:28;;;;;;;6.60;2.93;;;17.20;1.00;;;;;;4996250;28;20426;-69
2023/09/19 10:08:08;;;;;;;10.07;3.30;;;17.30;1.00;;;;;;4995902;28;20447;-70
2023/09/19 10:13:13;;;;;;;6.50;2.80;;;17.50;1.00;;;;;;5012454;28;20408;-72
2023/09/19 10:15:46;;;;;;;5.07;2.83;;;17.60;1.00;;;;;;4995894;28;20485;-69
2023/09/19 10:18:18;;;;;;;7.13;2.53;;;17.80;1.00;;;;;;4995836;28;20783;-68
2023/09/19 10:20:45;;;;;;;5.77;2.53;;;18.00;1.00;;;;;;4999526;28;20507;-69
2023/09/19 10:23:13;;;;;;;4.67;2.33;;;18.10;1.00;;;;;;4999970;28;20494;-71
2023/09/19 10:25:47;;;;;;;7.47;3.17;;;18.20;1.00;;;;;;5014725;28;20434;-69
2023/09/19 10:28:35;;;;;;;6.73;2.60;;;18.30;1.00;;;;;;5014750;28;20434;-71
2023/09/19 10:31:02;;;;;;;6.97;2.00;;;18.30;1.00;;;;;;5015216;28;20431;-68
2023/09/19 10:33:37;;;;;;;24.53;2.87;;;18.30;1.00;;;;;;4999784;28;20419;-69
2023/09/19 10:36:05;;;;;;;10.70;3.23;;;18.30;1.00;;;;;;5016534;28;20454;-69
2023/09/19 10:38:33;;;;;;;8.67;3.33;;;18.20;1.00;;;;;;5016550;28;20407;-69
2023/09/19 10:41:00;;;;;;;10.50;2.63;;;18.40;1.00;;;;;;5016261;28;20423;-70
2023/09/19 10:43:33;;;;;;;6.90;3.40;;;18.30;1.00;;;;;;4999319;28;20500;-68
2023/09/19 10:46:07;;;;;;;4.40;2.27;;;18.20;1.00;;;;;;4999937;28;20421;-69
2023/09/19 10:48:35;;;;;;;8.73;2.50;;;18.30;1.00;;;;;;5015674;28;20419;-70
2023/09/19 10:51:10;;;;;;;6.70;3.20;;;18.20;1.00;;;;;;4998563;28;20543;-70
2023/09/19 10:54:01;;;;;;;5.23;2.43;;;18.30;1.00;;;;;;5016956;28;20411;-68
2023/09/19 10:56:41;;;;;;;6.50;2.40;;;18.40;1.00;;;;;;5016543;28;20461;-68
2023/09/19 10:59:20;;;;;;;4.20;2.00;;;18.40;1.00;;;;;;5015702;28;20419;-68
2023/09/19 11:01:56;;;;;;;11.00;2.20;;;18.40;1.00;;;;;;5016198;28;20455;-69
2023/09/19 11:04:36;;;;;;;7.53;2.20;;;18.30;1.00;;;;;;5016742;28;20529;-69
2023/09/19 11:07:15;;;;;;;5.57;2.07;;;18.40;1.00;;;;;;5016698;28;20439;-70
2023/09/19 11:09:57;;;;;;;5.43;2.90;;;18.50;1.00;;;;;;5015815;28;20414;-70
2023/09/19 11:12:29;;;;;;;8.87;2.33;;;18.80;1.00;;;;;;4999439;28;20846;-70
2023/09/19 11:14:56;;;;;;;8.30;2.43;;;18.90;1.00;;;;;;5016551;28;20517;-69
2023/09/19 11:17:52;;;;;;;8.40;2.13;;;18.90;1.00;;;;;;5015302;28;20423;-69
2023/09/19 11:20:24;;;;;;;6.33;2.37;;;18.80;1.00;;;;;;5013655;28;20843;-69
2023/09/19 11:22:54;;;;;;;5.67;2.20;;;18.70;1.00;;;;;;5015291;28;20907;-68
2023/09/19 11:25:47;;;;;;;9.10;2.60;;;18.70;1.00;;;;;;5016362;28;20416;-69
2023/09/19 11:28:28;;;;;;;7.37;2.00;;;18.90;1.00;;;;;;5006828;28;20453;-69
2023/09/19 11:30:55;;;;;;;3.87;1.90;;;18.80;1.00;;;;;;5014035;28;20431;-69
2023/09/19 11:33:33;;;;;;;7.53;2.70;;;18.70;1.00;;;;;;5015536;28;20415;-70
2023/09/19 11:36:16;;;;;;;5.07;2.80;;;18.70;99.90;;;;;;4998553;28;20455;-68
2023/09/19 11:38:43;;;;;;;5.20;1.87;;;18.70;99.90;;;;;;5012540;28;20465;-70
2023/09/19 11:41:37;;;;;;;8.93;2.80;;;18.60;99.90;;;;;;5014230;28;20489;-68
2023/09/19 11:44:08;;;;;;;7.17;2.50;;;18.70;99.90;;;;;;5016046;28;20831;-69
2023/09/19 11:46:35;;;;;;;6.33;1.90;;;18.50;99.90;;;;;;5015730;28;20490;-70
2023/09/19 11:49:10;;;;;;;4.37;2.40;;;18.60;99.90;;;;;;5015661;28;20465;-70
2023/09/19 11:51:45;;;;;;;10.63;2.57;;;18.90;99.90;;;;;;5013086;28;20529;-68
2023/09/19 11:54:17;;;;;;;9.87;2.10;;;19.10;99.90;;;;;;4998313;28;20509;-70
2023/09/19 11:56:45;;;;;;;3.47;2.40;;;19.30;99.90;;;;;;5014453;28;20413;-71
2023/09/19 11:59:24;;;;;;;5.30;2.47;;;19.20;99.90;;;;;;4997607;28;20407;-70
2023/09/19 12:01:57;;;;;;;5.70;2.00;;;19.20;99.90;;;;;;5013960;28;20419;-68
2023/09/19 12:04:49;;;;;;;7.90;2.33;;;19.30;99.90;;;;;;5015675;28;20387;-68
2023/09/19 12:07:15;;;;;;;7.13;2.33;;;19.30;99.90;;;;;;5015571;28;20449;-70
2023/09/19 12:09:44;;;;;;;5.83;2.67;;;19.30;99.90;;;;;;5013603;28;20423;-68
2023/09/19 12:12:26;;;;;;;3.00;2.23;;;19.30;99.90;;;;;;5014238;28;20423;-70
2023/09/19 12:14:58;;;;;;;12.10;3.53;;;19.30;99.90;;;;;;4998200;28;20997;-70
2023/09/19 12:17:43;;;;;;;10.53;2.27;;;19.30;99.90;;;;;;5014414;28;20400;-68
2023/09/19 12:20:14;;;;;;;7.83;2.80;;;19.40;99.90;;;;;;4997914;28;20415;-70
2023/09/19 12:22:43;;;;;;;8.53;2.83;;;19.50;99.90;;;;;;4997688;28;20431;-71
2023/09/19 12:25:11;;;;;;;6.77;2.40;;;19.60;99.90;;;;;;5015185;28;20403;-71
2023/09/19 12:27:47;;;;;;;5.63;2.30;;;19.60;99.90;;;;;;5014156;28;20490;-70
2023/09/19 12:30:17;;;;;;;3.70;2.33;;;19.80;99.90;;;;;;5013470;28;20477;-69
2023/09/19 12:32:44;;;;;;;5.70;2.50;;;20.10;99.90;;;;;;5014053;28;20411;-70
2023/09/19 12:35:28;;;;;;;7.17;2.37;;;20.00;99.90;;;;;;4997307;28;20462;-72
2023/09/19 12:37:55;;;;;;;6.47;2.53;;;19.60;99.90;;;;;;5014964;28;20399;-69
2023/09/19 12:40:27;;;;;;;13.10;3.00;;;19.60;99.90;;;;;;4996511;28;20411;-71
2023/09/19 12:42:56;;;;;;;5.40;2.07;;;19.70;99.90;;;;;;4997602;28;20434;-70
2023/09/19 12:45:22;;;;;;;6.93;2.93;;;19.60;99.90;;;;;;5013569;28;20411;-69
2023/09/19 12:48:29;;;;;;;10.47;3.83;;;19.40;99.90;;;;;;5014271;28;20453;-71
2023/09/19 12:51:12;;;;;;;4.57;2.77;;;19.30;99.90;;;;;;5013750;28;20426;-73
2023/09/19 12:53:49;;;;;;;6.90;3.13;;;19.20;99.90;;;;;;5014638;28;20400;-69
2023/09/19 12:56:18;;;;;;;5.13;2.27;;;19.20;99.90;;;;;;4997571;28;20470;-68
2023/09/19 12:58:56;;;;;;;4.53;2.20;;;19.20;99.90;;;;;;4997161;28;20452;-68
2023/09/19 13:01:27;;;;;;;7.10;2.97;;;19.30;99.90;;;;;;5012319;28;20518;-69
2023/09/19 13:04:33;;;;;;;5.93;2.73;;;19.10;99.90;;;;;;5014417;28;20415;-68
2023/09/19 13:07:01;;;;;;;5.63;2.60;;;19.10;99.90;;;;;;5014710;28;20411;-70
2023/09/19 13:09:34;;;;;;;9.90;2.17;;;19.30;99.90;;;;;;5013121;28;20525;-70
2023/09/19 13:12:02;;;;;;;9.37;2.97;;;19.40;99.90;;;;;;5013116;28;20800;-69
2023/09/19 13:14:31;;;;;;;8.60;2.23;;;19.60;99.90;;;;;;4996201;28;20974;-71
2023/09/19 13:17:20;;;;;;;10.17;2.87;;;19.80;99.90;;;;;;5012604;28;20926;-69
2023/09/19 13:19:54;;;;;;;13.17;2.73;;;20.00;99.90;;;;;;4981597;28;20428;-71
2023/09/19 13:22:44;;;;;;;5.67;2.57;;;19.90;99.90;;;;;;4997174;28;20434;-70
2023/09/19 13:25:33;;;;;;;8.90;2.60;;;20.20;99.90;;;;;;5012274;28;20490;-71